sensor_id;sensor_type;location;lat;lon;timestamp;P1;durP1;ratioP1;P2;durP2;ratioP2
1004;SDS011;491;53.480;10.174;2022-12-05T00:01:14;18.27;;;11.43;;
1004;SDS011;491;53.480;10.174;2022-12-05T00:03:47;24.57;;;12.07;;
1004;SDS011;491;53.480;10.174;2022-12-05T00:06:14;23.33;;;13.17;;
1004;SDS011;491;53.480;10.174;2022-12-05T00:08:40;22.77;;;11.60;;
1004;SDS011;491;53.480;10.174;2022-12-05T00:11:12;25.27;;;11.30;;
1004;SDS011;491;53.480;10.174;2022-12-05T00:13:42;26.20;;;12.83;;
1004;SDS011;491;53.480;10.174;2022-12-05T00:16:12;27.00;;;13.40;;
1004;SDS011;491;53.480;10.174;2022-12-05T00:18:40;23.50;;;12.53;;
1004;SDS011;491;53.480;10.174;2022-12-05T00:21:06;23.23;;;12.40;;
1004;SDS011;491;53.480;10.174;2022-12-05T00:23:35;20.53;;;10.67;;
1004;SDS011;491;53.480;10.174;2022-12-05T00:26:04;18.70;;;11.00;;
1004;SDS011;491;53.480;10.174;2022-12-05T00:28:30;22.00;;;12.70;;
1004;SDS011;491;53.480;10.174;2022-12-05T00:31:00;25.10;;;11.07;;
1004;SDS011;491;53.480;10.174;2022-12-05T00:33:33;26.80;;;11.53;;
1004;SDS011;491;53.480;10.174;2022-12-05T00:36:03;21.27;;;10.90;;
1004;SDS011;491;53.480;10.174;2022-12-05T00:38:34;24.93;;;13.30;;
1004;SDS011;491;53.480;10.174;2022-12-05T00:41:03;23.67;;;12.10;;
1004;SDS011;491;53.480;10.174;2022-12-05T00:43:34;16.60;;;10.50;;
1004;SDS011;491;53.480;10.174;2022-12-05T00:46:07;18.40;;;10.40;;
1004;SDS011;491;53.480;10.174;2022-12-05T00:48:34;17.03;;;9.80;;
1004;SDS011;491;53.480;10.174;2022-12-05T00:51:03;21.13;;;11.13;;
1004;SDS011;491;53.480;10.174;2022-12-05T00:53:37;17.33;;;9.00;;
1004;SDS011;491;53.480;10.174;2022-12-05T00:56:03;23.40;;;11.63;;
1004;SDS011;491;53.480;10.174;2022-12-05T00:58:31;22.43;;;10.67;;
1004;SDS011;491;53.480;10.174;2022-12-05T01:00:57;17.97;;;10.63;;
1004;SDS011;491;53.480;10.174;2022-12-05T01:03:29;18.27;;;12.27;;
1004;SDS011;491;53.480;10.174;2022-12-05T01:05:54;20.90;;;11.00;;
1004;SDS011;491;53.480;10.174;2022-12-05T01:08:22;19.63;;;10.23;;
1004;SDS011;491;53.480;10.174;2022-12-05T01:10:52;18.63;;;12.77;;
1004;SDS011;491;53.480;10.174;2022-12-05T01:13:19;22.60;;;11.83;;
1004;SDS011;491;53.480;10.174;2022-12-05T01:15:44;20.77;;;10.03;;
1004;SDS011;491;53.480;10.174;2022-12-05T01:18:09;23.50;;;10.60;;
1004;SDS011;491;53.480;10.174;2022-12-05T01:20:37;22.20;;;12.97;;
1004;SDS011;491;53.480;10.174;2022-12-05T01:23:03;16.87;;;9.90;;
1004;SDS011;491;53.480;10.174;2022-12-05T01:25:29;16.70;;;8.87;;
1004;SDS011;491;53.480;10.174;2022-12-05T01:27:54;21.80;;;11.70;;
1004;SDS011;491;53.480;10.174;2022-12-05T01:30:20;19.63;;;10.70;;
1004;SDS011;491;53.480;10.174;2022-12-05T01:32:45;18.63;;;11.10;;
1004;SDS011;491;53.480;10.174;2022-12-05T01:35:14;20.70;;;10.70;;
1004;SDS011;491;53.480;10.174;2022-12-05T01:37:39;17.13;;;9.77;;
1004;SDS011;491;53.480;10.174;2022-12-05T01:40:05;17.70;;;10.37;;
1004;SDS011;491;53.480;10.174;2022-12-05T01:42:32;21.70;;;11.47;;
1004;SDS011;491;53.480;10.174;2022-12-05T01:44:59;23.57;;;12.33;;
1004;SDS011;491;53.480;10.174;2022-12-05T01:47:40;17.03;;;9.50;;
1004;SDS011;491;53.480;10.174;2022-12-05T01:50:06;19.20;;;9.60;;
1004;SDS011;491;53.480;10.174;2022-12-05T01:52:32;13.43;;;8.70;;
1004;SDS011;491;53.480;10.174;2022-12-05T01:55:00;16.83;;;10.00;;
1004;SDS011;491;53.480;10.174;2022-12-05T01:57:30;16.00;;;9.43;;
1004;SDS011;491;53.480;10.174;2022-12-05T01:59:57;18.73;;;11.70;;
1004;SDS011;491;53.480;10.174;2022-12-05T02:02:27;20.63;;;8.87;;
1004;SDS011;491;53.480;10.174;2022-12-05T02:05:01;17.00;;;11.17;;
1004;SDS011;491;53.480;10.174;2022-12-05T02:07:48;21.73;;;11.13;;
1004;SDS011;491;53.480;10.174;2022-12-05T02:10:13;18.50;;;9.70;;
1004;SDS011;491;53.480;10.174;2022-12-05T02:12:39;21.30;;;10.27;;
1004;SDS011;491;53.480;10.174;2022-12-05T02:15:32;16.73;;;11.93;;
1004;SDS011;491;53.480;10.174;2022-12-05T02:24:20;18.00;;;10.20;;
1004;SDS011;491;53.480;10.174;2022-12-05T02:29:55;16.03;;;9.50;;
1004;SDS011;491;53.480;10.174;2022-12-05T02:35:09;20.00;;;8.93;;
1004;SDS011;491;53.480;10.174;2022-12-05T02:38:03;19.43;;;11.00;;
1004;SDS011;491;53.480;10.174;2022-12-05T02:43:30;15.83;;;8.37;;
1004;SDS011;491;53.480;10.174;2022-12-05T02:46:03;19.90;;;8.93;;
1004;SDS011;491;53.480;10.174;2022-12-05T02:48:36;17.57;;;9.97;;
1004;SDS011;491;53.480;10.174;2022-12-05T02:51:03;17.67;;;8.27;;
1004;SDS011;491;53.480;10.174;2022-12-05T02:53:30;18.63;;;9.93;;
1004;SDS011;491;53.480;10.174;2022-12-05T02:55:56;15.10;;;9.90;;
1004;SDS011;491;53.480;10.174;2022-12-05T02:58:23;17.87;;;9.87;;
1004;SDS011;491;53.480;10.174;2022-12-05T03:00:58;18.87;;;9.50;;
1004;SDS011;491;53.480;10.174;2022-12-05T03:03:26;17.20;;;10.90;;
1004;SDS011;491;53.480;10.174;2022-12-05T03:06:05;15.00;;;9.67;;
1004;SDS011;491;53.480;10.174;2022-12-05T03:08:52;17.00;;;9.23;;
1004;SDS011;491;53.480;10.174;2022-12-05T03:11:41;21.23;;;10.30;;
1004;SDS011;491;53.480;10.174;2022-12-05T03:14:13;14.10;;;9.07;;
1004;SDS011;491;53.480;10.174;2022-12-05T03:16:47;17.50;;;9.87;;
1004;SDS011;491;53.480;10.174;2022-12-05T03:19:15;17.43;;;9.40;;
1004;SDS011;491;53.480;10.174;2022-12-05T03:21:47;20.60;;;10.20;;
1004;SDS011;491;53.480;10.174;2022-12-05T03:24:17;18.23;;;10.00;;
1004;SDS011;491;53.480;10.174;2022-12-05T03:29:33;14.40;;;9.30;;
1004;SDS011;491;53.480;10.174;2022-12-05T03:32:26;12.13;;;7.87;;
1004;SDS011;491;53.480;10.174;2022-12-05T03:34:56;12.93;;;7.80;;
1004;SDS011;491;53.480;10.174;2022-12-05T03:40:04;14.77;;;9.33;;
1004;SDS011;491;53.480;10.174;2022-12-05T03:42:51;17.73;;;8.43;;
1004;SDS011;491;53.480;10.174;2022-12-05T03:45:37;18.10;;;9.60;;
1004;SDS011;491;53.480;10.174;2022-12-05T03:50:56;20.23;;;9.27;;
1004;SDS011;491;53.480;10.174;2022-12-05T03:53:27;19.73;;;10.17;;
1004;SDS011;491;53.480;10.174;2022-12-05T03:56:07;15.50;;;9.23;;
1004;SDS011;491;53.480;10.174;2022-12-05T03:58:45;22.80;;;9.97;;
1004;SDS011;491;53.480;10.174;2022-12-05T04:01:21;16.47;;;8.70;;
1004;SDS011;491;53.480;10.174;2022-12-05T04:03:50;14.77;;;8.83;;
1004;SDS011;491;53.480;10.174;2022-12-05T04:06:21;21.07;;;12.10;;
1004;SDS011;491;53.480;10.174;2022-12-05T04:08:54;23.30;;;10.33;;
1004;SDS011;491;53.480;10.174;2022-12-05T04:11:40;21.60;;;9.43;;
1004;SDS011;491;53.480;10.174;2022-12-05T04:14:14;14.67;;;9.27;;
1004;SDS011;491;53.480;10.174;2022-12-05T04:20:15;18.67;;;10.00;;
1004;SDS011;491;53.480;10.174;2022-12-05T04:23:14;20.23;;;10.63;;
1004;SDS011;491;53.480;10.174;2022-12-05T04:25:48;17.50;;;8.57;;
1004;SDS011;491;53.480;10.174;2022-12-05T04:28:41;17.97;;;9.30;;
1004;SDS011;491;53.480;10.174;2022-12-05T04:31:38;16.83;;;8.87;;
1004;SDS011;491;53.480;10.174;2022-12-05T04:34:12;19.33;;;10.43;;
1004;SDS011;491;53.480;10.174;2022-12-05T04:36:44;16.57;;;9.17;;
1004;SDS011;491;53.480;10.174;2022-12-05T04:39:17;26.87;;;11.73;;
1004;SDS011;491;53.480;10.174;2022-12-05T04:41:51;22.90;;;9.57;;
1004;SDS011;491;53.480;10.174;2022-12-05T04:44:21;15.50;;;9.17;;
1004;SDS011;491;53.480;10.174;2022-12-05T04:46:51;22.70;;;9.57;;
1004;SDS011;491;53.480;10.174;2022-12-05T04:49:20;16.20;;;10.40;;
1004;SDS011;491;53.480;10.174;2022-12-05T04:51:49;14.97;;;10.47;;
1004;SDS011;491;53.480;10.174;2022-12-05T04:54:25;16.80;;;10.40;;
1004;SDS011;491;53.480;10.174;2022-12-05T04:56:53;18.20;;;10.17;;
1004;SDS011;491;53.480;10.174;2022-12-05T04:59:23;21.63;;;9.47;;
1004;SDS011;491;53.480;10.174;2022-12-05T05:01:56;21.40;;;10.20;;
1004;SDS011;491;53.480;10.174;2022-12-05T05:04:31;17.23;;;9.23;;
1004;SDS011;491;53.480;10.174;2022-12-05T05:07:11;18.67;;;10.43;;
1004;SDS011;491;53.480;10.174;2022-12-05T05:09:38;15.43;;;7.67;;
1004;SDS011;491;53.480;10.174;2022-12-05T05:12:04;15.40;;;8.17;;
1004;SDS011;491;53.480;10.174;2022-12-05T05:14:30;17.67;;;9.90;;
1004;SDS011;491;53.480;10.174;2022-12-05T05:16:56;12.20;;;8.30;;
1004;SDS011;491;53.480;10.174;2022-12-05T05:19:22;14.80;;;9.50;;
1004;SDS011;491;53.480;10.174;2022-12-05T05:21:47;13.30;;;8.60;;
1004;SDS011;491;53.480;10.174;2022-12-05T05:24:13;17.30;;;9.70;;
1004;SDS011;491;53.480;10.174;2022-12-05T05:26:43;15.37;;;8.40;;
1004;SDS011;491;53.480;10.174;2022-12-05T05:29:10;12.63;;;8.37;;
1004;SDS011;491;53.480;10.174;2022-12-05T05:31:37;22.07;;;9.17;;
1004;SDS011;491;53.480;10.174;2022-12-05T05:34:03;17.13;;;9.73;;
1004;SDS011;491;53.480;10.174;2022-12-05T05:36:30;19.50;;;8.10;;
1004;SDS011;491;53.480;10.174;2022-12-05T05:38:57;18.43;;;9.23;;
1004;SDS011;491;53.480;10.174;2022-12-05T05:41:28;20.57;;;10.40;;
1004;SDS011;491;53.480;10.174;2022-12-05T05:43:58;21.33;;;9.70;;
1004;SDS011;491;53.480;10.174;2022-12-05T05:46:25;28.90;;;11.27;;
1004;SDS011;491;53.480;10.174;2022-12-05T05:48:53;30.47;;;13.30;;
1004;SDS011;491;53.480;10.174;2022-12-05T05:51:19;31.90;;;11.13;;
1004;SDS011;491;53.480;10.174;2022-12-05T05:53:45;31.50;;;13.73;;
1004;SDS011;491;53.480;10.174;2022-12-05T05:56:11;31.00;;;12.60;;
1004;SDS011;491;53.480;10.174;2022-12-05T05:58:42;33.87;;;12.90;;
1004;SDS011;491;53.480;10.174;2022-12-05T06:01:09;31.73;;;12.40;;
1004;SDS011;491;53.480;10.174;2022-12-05T06:03:37;29.70;;;14.20;;
1004;SDS011;491;53.480;10.174;2022-12-05T06:06:03;33.63;;;13.10;;
1004;SDS011;491;53.480;10.174;2022-12-05T06:08:31;28.67;;;13.50;;
1004;SDS011;491;53.480;10.174;2022-12-05T06:10:58;40.53;;;15.60;;
1004;SDS011;491;53.480;10.174;2022-12-05T06:13:28;34.33;;;17.37;;
1004;SDS011;491;53.480;10.174;2022-12-05T06:15:53;36.40;;;14.73;;
1004;SDS011;491;53.480;10.174;2022-12-05T06:18:19;38.10;;;15.60;;
1004;SDS011;491;53.480;10.174;2022-12-05T06:20:54;43.03;;;16.37;;
1004;SDS011;491;53.480;10.174;2022-12-05T06:23:24;36.37;;;15.77;;
1004;SDS011;491;53.480;10.174;2022-12-05T06:25:50;42.57;;;18.47;;
1004;SDS011;491;53.480;10.174;2022-12-05T06:28:18;36.63;;;16.17;;
1004;SDS011;491;53.480;10.174;2022-12-05T06:30:44;32.50;;;13.47;;
1004;SDS011;491;53.480;10.174;2022-12-05T06:33:10;30.07;;;14.97;;
1004;SDS011;491;53.480;10.174;2022-12-05T06:35:36;42.57;;;17.23;;
1004;SDS011;491;53.480;10.174;2022-12-05T06:38:02;35.37;;;15.47;;
1004;SDS011;491;53.480;10.174;2022-12-05T06:40:28;28.40;;;14.77;;
1004;SDS011;491;53.480;10.174;2022-12-05T06:42:54;37.50;;;15.47;;
1004;SDS011;491;53.480;10.174;2022-12-05T06:45:19;33.70;;;15.70;;
1004;SDS011;491;53.480;10.174;2022-12-05T06:47:45;40.77;;;17.07;;
1004;SDS011;491;53.480;10.174;2022-12-05T06:50:10;46.20;;;18.50;;
1004;SDS011;491;53.480;10.174;2022-12-05T06:52:36;41.00;;;16.57;;
1004;SDS011;491;53.480;10.174;2022-12-05T06:55:01;37.63;;;16.37;;
1004;SDS011;491;53.480;10.174;2022-12-05T06:57:27;42.50;;;16.43;;
1004;SDS011;491;53.480;10.174;2022-12-05T06:59:53;36.10;;;17.30;;
1004;SDS011;491;53.480;10.174;2022-12-05T07:02:41;43.73;;;19.00;;
1004;SDS011;491;53.480;10.174;2022-12-05T07:05:07;42.47;;;16.50;;
1004;SDS011;491;53.480;10.174;2022-12-05T07:07:33;43.20;;;16.20;;
1004;SDS011;491;53.480;10.174;2022-12-05T07:09:59;44.90;;;17.80;;
1004;SDS011;491;53.480;10.174;2022-12-05T07:12:24;51.50;;;20.47;;
1004;SDS011;491;53.480;10.174;2022-12-05T07:14:49;45.50;;;17.33;;
1004;SDS011;491;53.480;10.174;2022-12-05T07:17:19;47.77;;;17.67;;
1004;SDS011;491;53.480;10.174;2022-12-05T07:19:48;43.97;;;18.03;;
1004;SDS011;491;53.480;10.174;2022-12-05T07:22:15;39.80;;;19.40;;
1004;SDS011;491;53.480;10.174;2022-12-05T07:24:41;34.67;;;15.90;;
1004;SDS011;491;53.480;10.174;2022-12-05T07:27:07;44.73;;;17.17;;
1004;SDS011;491;53.480;10.174;2022-12-05T07:29:32;42.43;;;17.97;;
1004;SDS011;491;53.480;10.174;2022-12-05T07:31:58;31.57;;;16.13;;
1004;SDS011;491;53.480;10.174;2022-12-05T07:34:23;34.27;;;15.17;;
1004;SDS011;491;53.480;10.174;2022-12-05T07:36:49;36.27;;;15.77;;
1004;SDS011;491;53.480;10.174;2022-12-05T07:39:14;34.30;;;16.70;;
1004;SDS011;491;53.480;10.174;2022-12-05T07:41:40;35.60;;;14.87;;
1004;SDS011;491;53.480;10.174;2022-12-05T07:44:09;32.83;;;13.00;;
1004;SDS011;491;53.480;10.174;2022-12-05T07:46:35;36.77;;;14.67;;
1004;SDS011;491;53.480;10.174;2022-12-05T07:49:01;37.20;;;15.03;;
1004;SDS011;491;53.480;10.174;2022-12-05T07:51:27;40.37;;;16.27;;
1004;SDS011;491;53.480;10.174;2022-12-05T07:53:53;32.50;;;16.27;;
1004;SDS011;491;53.480;10.174;2022-12-05T07:56:18;30.40;;;13.23;;
1004;SDS011;491;53.480;10.174;2022-12-05T07:58:45;32.93;;;15.63;;
1004;SDS011;491;53.480;10.174;2022-12-05T08:01:14;38.40;;;13.97;;
1004;SDS011;491;53.480;10.174;2022-12-05T08:03:44;38.10;;;15.20;;
1004;SDS011;491;53.480;10.174;2022-12-05T08:06:12;37.03;;;14.30;;
1004;SDS011;491;53.480;10.174;2022-12-05T08:08:43;28.67;;;14.27;;
1004;SDS011;491;53.480;10.174;2022-12-05T08:11:14;30.87;;;13.67;;
1004;SDS011;491;53.480;10.174;2022-12-05T08:13:41;36.17;;;14.70;;
1004;SDS011;491;53.480;10.174;2022-12-05T08:16:12;33.10;;;15.90;;
1004;SDS011;491;53.480;10.174;2022-12-05T08:18:39;21.90;;;12.10;;
1004;SDS011;491;53.480;10.174;2022-12-05T08:21:09;31.50;;;13.80;;
1004;SDS011;491;53.480;10.174;2022-12-05T08:23:36;32.23;;;13.57;;
1004;SDS011;491;53.480;10.174;2022-12-05T08:26:10;36.80;;;14.50;;
1004;SDS011;491;53.480;10.174;2022-12-05T08:28:40;27.13;;;14.77;;
1004;SDS011;491;53.480;10.174;2022-12-05T08:31:10;35.23;;;13.77;;
1004;SDS011;491;53.480;10.174;2022-12-05T08:33:38;27.10;;;11.53;;
1004;SDS011;491;53.480;10.174;2022-12-05T08:36:05;26.73;;;11.43;;
1004;SDS011;491;53.480;10.174;2022-12-05T08:38:32;28.03;;;12.10;;
1004;SDS011;491;53.480;10.174;2022-12-05T08:41:02;29.20;;;13.70;;
1004;SDS011;491;53.480;10.174;2022-12-05T08:43:30;25.10;;;13.03;;
1004;SDS011;491;53.480;10.174;2022-12-05T08:45:58;24.03;;;12.83;;
1004;SDS011;491;53.480;10.174;2022-12-05T08:48:24;22.50;;;11.40;;
1004;SDS011;491;53.480;10.174;2022-12-05T08:50:54;31.73;;;13.07;;
1004;SDS011;491;53.480;10.174;2022-12-05T08:53:20;22.50;;;13.67;;
1004;SDS011;491;53.480;10.174;2022-12-05T08:55:46;26.77;;;11.53;;
1004;SDS011;491;53.480;10.174;2022-12-05T08:58:12;23.67;;;11.50;;
1004;SDS011;491;53.480;10.174;2022-12-05T09:00:37;22.53;;;11.50;;
1004;SDS011;491;53.480;10.174;2022-12-05T09:03:04;23.47;;;11.97;;
1004;SDS011;491;53.480;10.174;2022-12-05T09:05:29;24.27;;;11.57;;
1004;SDS011;491;53.480;10.174;2022-12-05T09:07:55;20.30;;;10.60;;
1004;SDS011;491;53.480;10.174;2022-12-05T09:10:21;22.90;;;10.40;;
1004;SDS011;491;53.480;10.174;2022-12-05T09:12:47;24.13;;;11.87;;
1004;SDS011;491;53.480;10.174;2022-12-05T09:15:14;21.93;;;12.10;;
1004;SDS011;491;53.480;10.174;2022-12-05T09:17:39;19.70;;;10.27;;
1004;SDS011;491;53.480;10.174;2022-12-05T09:20:05;19.13;;;10.70;;
1004;SDS011;491;53.480;10.174;2022-12-05T09:22:31;21.63;;;11.50;;
1004;SDS011;491;53.480;10.174;2022-12-05T09:24:57;30.83;;;14.17;;
1004;SDS011;491;53.480;10.174;2022-12-05T09:27:24;25.57;;;12.20;;
1004;SDS011;491;53.480;10.174;2022-12-05T09:29:51;16.37;;;10.47;;
1004;SDS011;491;53.480;10.174;2022-12-05T09:32:16;22.50;;;12.00;;
1004;SDS011;491;53.480;10.174;2022-12-05T09:34:42;20.60;;;10.20;;
1004;SDS011;491;53.480;10.174;2022-12-05T09:37:08;20.93;;;11.13;;
1004;SDS011;491;53.480;10.174;2022-12-05T09:39:33;22.50;;;10.63;;
1004;SDS011;491;53.480;10.174;2022-12-05T09:44:55;19.50;;;9.93;;
1004;SDS011;491;53.480;10.174;2022-12-05T09:47:50;21.63;;;10.27;;
1004;SDS011;491;53.480;10.174;2022-12-05T09:50:23;21.07;;;10.87;;
1004;SDS011;491;53.480;10.174;2022-12-05T09:53:04;19.07;;;8.97;;
1004;SDS011;491;53.480;10.174;2022-12-05T09:58:42;16.33;;;8.80;;
1004;SDS011;491;53.480;10.174;2022-12-05T10:04:25;22.10;;;11.40;;
1004;SDS011;491;53.480;10.174;2022-12-05T10:09:52;18.87;;;10.90;;
1004;SDS011;491;53.480;10.174;2022-12-05T10:13:20;20.60;;;11.03;;
1004;SDS011;491;53.480;10.174;2022-12-05T10:15:49;17.30;;;9.40;;
1004;SDS011;491;53.480;10.174;2022-12-05T10:18:34;18.27;;;7.90;;
1004;SDS011;491;53.480;10.174;2022-12-05T10:21:16;17.03;;;9.03;;
1004;SDS011;491;53.480;10.174;2022-12-05T10:23:57;16.80;;;8.43;;
1004;SDS011;491;53.480;10.174;2022-12-05T10:26:27;15.40;;;9.50;;
1004;SDS011;491;53.480;10.174;2022-12-05T10:29:08;20.97;;;8.50;;
1004;SDS011;491;53.480;10.174;2022-12-05T10:31:59;15.27;;;7.83;;
1004;SDS011;491;53.480;10.174;2022-12-05T10:34:39;11.87;;;7.20;;
1004;SDS011;491;53.480;10.174;2022-12-05T10:37:10;15.23;;;9.20;;
1004;SDS011;491;53.480;10.174;2022-12-05T10:39:46;17.00;;;8.43;;
1004;SDS011;491;53.480;10.174;2022-12-05T10:42:14;16.20;;;7.70;;
1004;SDS011;491;53.480;10.174;2022-12-05T10:44:41;15.07;;;8.77;;
1004;SDS011;491;53.480;10.174;2022-12-05T10:47:07;19.03;;;8.43;;
1004;SDS011;491;53.480;10.174;2022-12-05T10:49:33;13.07;;;9.43;;
1004;SDS011;491;53.480;10.174;2022-12-05T10:51:59;17.73;;;8.83;;
1004;SDS011;491;53.480;10.174;2022-12-05T10:54:27;18.63;;;9.27;;
1004;SDS011;491;53.480;10.174;2022-12-05T10:56:56;16.07;;;7.77;;
1004;SDS011;491;53.480;10.174;2022-12-05T10:59:23;11.50;;;6.33;;
1004;SDS011;491;53.480;10.174;2022-12-05T11:01:52;13.37;;;7.93;;
1004;SDS011;491;53.480;10.174;2022-12-05T11:04:23;18.13;;;8.20;;
1004;SDS011;491;53.480;10.174;2022-12-05T11:06:50;12.57;;;7.40;;
1004;SDS011;491;53.480;10.174;2022-12-05T11:09:25;13.60;;;8.07;;
1004;SDS011;491;53.480;10.174;2022-12-05T11:14:55;19.40;;;8.70;;
1004;SDS011;491;53.480;10.174;2022-12-05T11:17:25;15.80;;;7.30;;
1004;SDS011;491;53.480;10.174;2022-12-05T11:19:58;13.03;;;7.40;;
1004;SDS011;491;53.480;10.174;2022-12-05T11:22:31;13.67;;;7.67;;
1004;SDS011;491;53.480;10.174;2022-12-05T11:24:58;15.27;;;9.07;;
1004;SDS011;491;53.480;10.174;2022-12-05T11:27:25;20.03;;;7.37;;
1004;SDS011;491;53.480;10.174;2022-12-05T11:29:57;14.80;;;7.90;;
1004;SDS011;491;53.480;10.174;2022-12-05T11:32:26;12.13;;;6.70;;
1004;SDS011;491;53.480;10.174;2022-12-05T11:35:27;17.50;;;7.97;;
1004;SDS011;491;53.480;10.174;2022-12-05T11:37:53;16.73;;;8.53;;
1004;SDS011;491;53.480;10.174;2022-12-05T11:40:27;17.57;;;7.73;;
1004;SDS011;491;53.480;10.174;2022-12-05T11:43:08;13.73;;;7.87;;
1004;SDS011;491;53.480;10.174;2022-12-05T11:48:28;12.43;;;7.53;;
1004;SDS011;491;53.480;10.174;2022-12-05T11:51:20;16.87;;;7.80;;
1004;SDS011;491;53.480;10.174;2022-12-05T11:54:27;12.33;;;7.07;;
1004;SDS011;491;53.480;10.174;2022-12-05T11:57:09;17.83;;;9.40;;
1004;SDS011;491;53.480;10.174;2022-12-05T12:00:04;12.47;;;6.40;;
1004;SDS011;491;53.480;10.174;2022-12-05T12:03:08;14.50;;;6.93;;
1004;SDS011;491;53.480;10.174;2022-12-05T12:05:59;14.70;;;6.50;;
1004;SDS011;491;53.480;10.174;2022-12-05T12:11:30;17.40;;;7.30;;
1004;SDS011;491;53.480;10.174;2022-12-05T12:17:06;14.77;;;6.97;;
1004;SDS011;491;53.480;10.174;2022-12-05T12:19:50;14.60;;;7.87;;
1004;SDS011;491;53.480;10.174;2022-12-05T12:22:31;15.10;;;7.87;;
1004;SDS011;491;53.480;10.174;2022-12-05T12:25:16;12.53;;;5.87;;
1004;SDS011;491;53.480;10.174;2022-12-05T12:27:55;19.43;;;8.57;;
1004;SDS011;491;53.480;10.174;2022-12-05T12:30:44;12.90;;;7.57;;
1004;SDS011;491;53.480;10.174;2022-12-05T12:33:28;14.50;;;7.17;;
1004;SDS011;491;53.480;10.174;2022-12-05T12:47:10;12.27;;;5.50;;
1004;SDS011;491;53.480;10.174;2022-12-05T12:49:50;14.60;;;6.37;;
1004;SDS011;491;53.480;10.174;2022-12-05T12:52:37;11.97;;;5.93;;
1004;SDS011;491;53.480;10.174;2022-12-05T12:58:49;13.80;;;7.33;;
1004;SDS011;491;53.480;10.174;2022-12-05T13:01:35;11.27;;;5.83;;
1004;SDS011;491;53.480;10.174;2022-12-05T13:04:11;17.17;;;6.30;;
1004;SDS011;491;53.480;10.174;2022-12-05T13:06:44;10.67;;;6.50;;
1004;SDS011;491;53.480;10.174;2022-12-05T13:12:05;10.60;;;7.03;;
1004;SDS011;491;53.480;10.174;2022-12-05T13:14:34;13.30;;;5.77;;
1004;SDS011;491;53.480;10.174;2022-12-05T13:17:02;11.27;;;5.40;;
1004;SDS011;491;53.480;10.174;2022-12-05T13:19:31;7.77;;;4.50;;
1004;SDS011;491;53.480;10.174;2022-12-05T13:22:08;10.93;;;6.60;;
1004;SDS011;491;53.480;10.174;2022-12-05T13:24:34;14.80;;;6.30;;
1004;SDS011;491;53.480;10.174;2022-12-05T13:27:00;11.23;;;5.93;;
1004;SDS011;491;53.480;10.174;2022-12-05T13:29:32;10.53;;;5.50;;
1004;SDS011;491;53.480;10.174;2022-12-05T13:32:23;16.50;;;7.70;;
1004;SDS011;491;53.480;10.174;2022-12-05T13:35:38;12.30;;;5.23;;
1004;SDS011;491;53.480;10.174;2022-12-05T13:38:18;8.60;;;5.57;;
1004;SDS011;491;53.480;10.174;2022-12-05T13:41:09;12.17;;;5.60;;
1004;SDS011;491;53.480;10.174;2022-12-05T13:43:54;16.50;;;6.27;;
1004;SDS011;491;53.480;10.174;2022-12-05T13:46:22;12.67;;;5.57;;
1004;SDS011;491;53.480;10.174;2022-12-05T13:48:56;10.27;;;5.63;;
1004;SDS011;491;53.480;10.174;2022-12-05T13:51:39;9.57;;;5.70;;
1004;SDS011;491;53.480;10.174;2022-12-05T13:57:53;7.13;;;5.00;;
1004;SDS011;491;53.480;10.174;2022-12-05T14:07:43;10.13;;;4.70;;
1004;SDS011;491;53.480;10.174;2022-12-05T14:11:05;10.47;;;4.83;;
1004;SDS011;491;53.480;10.174;2022-12-05T14:13:00;8.50;;;5.50;;
1004;SDS011;491;53.480;10.174;2022-12-05T14:15:37;10.17;;;5.50;;
1004;SDS011;491;53.480;10.174;2022-12-05T14:34:54;10.47;;;6.07;;
1004;SDS011;491;53.480;10.174;2022-12-05T14:47:57;19.87;;;13.87;;
1004;SDS011;491;53.480;10.174;2022-12-05T14:50:36;14.60;;;7.43;;
1004;SDS011;491;53.480;10.174;2022-12-05T14:55:44;23.73;;;13.27;;
1004;SDS011;491;53.480;10.174;2022-12-05T14:58:16;21.47;;;12.23;;
1004;SDS011;491;53.480;10.174;2022-12-05T15:00:55;24.43;;;16.20;;
1004;SDS011;491;53.480;10.174;2022-12-05T15:03:46;17.20;;;9.70;;
1004;SDS011;491;53.480;10.174;2022-12-05T15:06:28;20.13;;;11.40;;
1004;SDS011;491;53.480;10.174;2022-12-05T15:08:58;22.10;;;13.43;;
1004;SDS011;491;53.480;10.174;2022-12-05T15:11:31;15.30;;;10.73;;
1004;SDS011;491;53.480;10.174;2022-12-05T15:14:18;14.03;;;8.10;;
1004;SDS011;491;53.480;10.174;2022-12-05T15:16:46;18.40;;;11.07;;
1004;SDS011;491;53.480;10.174;2022-12-05T15:19:17;14.93;;;8.90;;
1004;SDS011;491;53.480;10.174;2022-12-05T15:21:49;16.13;;;8.33;;
1004;SDS011;491;53.480;10.174;2022-12-05T15:24:20;16.50;;;9.30;;
1004;SDS011;491;53.480;10.174;2022-12-05T15:26:51;19.50;;;13.80;;
1004;SDS011;491;53.480;10.174;2022-12-05T15:34:31;18.97;;;10.40;;
1004;SDS011;491;53.480;10.174;2022-12-05T15:37:16;13.67;;;9.67;;
1004;SDS011;491;53.480;10.174;2022-12-05T15:39:50;19.90;;;9.27;;
1004;SDS011;491;53.480;10.174;2022-12-05T15:42:25;14.43;;;8.30;;
1004;SDS011;491;53.480;10.174;2022-12-05T15:47:39;14.47;;;9.00;;
1004;SDS011;491;53.480;10.174;2022-12-05T15:50:05;14.73;;;7.97;;
1004;SDS011;491;53.480;10.174;2022-12-05T15:52:40;13.40;;;6.93;;
1004;SDS011;491;53.480;10.174;2022-12-05T15:55:36;12.90;;;8.17;;
1004;SDS011;491;53.480;10.174;2022-12-05T16:00:48;14.10;;;7.83;;
1004;SDS011;491;53.480;10.174;2022-12-05T16:03:20;17.30;;;7.90;;
1004;SDS011;491;53.480;10.174;2022-12-05T16:09:16;11.77;;;6.10;;
1004;SDS011;491;53.480;10.174;2022-12-05T16:12:26;6.47;;;3.80;;
1004;SDS011;491;53.480;10.174;2022-12-05T16:15:04;7.27;;;3.97;;
1004;SDS011;491;53.480;10.174;2022-12-05T16:17:51;6.33;;;3.40;;
1004;SDS011;491;53.480;10.174;2022-12-05T16:20:23;8.40;;;4.07;;
1004;SDS011;491;53.480;10.174;2022-12-05T16:22:54;9.50;;;4.60;;
1004;SDS011;491;53.480;10.174;2022-12-05T16:25:39;8.87;;;5.20;;
1004;SDS011;491;53.480;10.174;2022-12-05T16:30:33;6.93;;;3.67;;
1004;SDS011;491;53.480;10.174;2022-12-05T16:33:04;8.00;;;4.63;;
1004;SDS011;491;53.480;10.174;2022-12-05T16:35:33;10.20;;;4.50;;
1004;SDS011;491;53.480;10.174;2022-12-05T16:40:29;6.37;;;4.10;;
1004;SDS011;491;53.480;10.174;2022-12-05T16:43:02;5.93;;;3.00;;
1004;SDS011;491;53.480;10.174;2022-12-05T16:45:42;6.77;;;3.03;;
1004;SDS011;491;53.480;10.174;2022-12-05T16:48:16;7.60;;;4.00;;
1004;SDS011;491;53.480;10.174;2022-12-05T16:50:49;8.43;;;4.97;;
1004;SDS011;491;53.480;10.174;2022-12-05T16:53:38;9.80;;;5.10;;
1004;SDS011;491;53.480;10.174;2022-12-05T16:56:05;7.90;;;5.17;;
1004;SDS011;491;53.480;10.174;2022-12-05T16:58:35;8.87;;;5.83;;
1004;SDS011;491;53.480;10.174;2022-12-05T17:01:02;9.00;;;4.53;;
1004;SDS011;491;53.480;10.174;2022-12-05T17:03:30;6.67;;;4.10;;
1004;SDS011;491;53.480;10.174;2022-12-05T17:05:59;7.17;;;3.67;;
1004;SDS011;491;53.480;10.174;2022-12-05T17:08:35;11.40;;;5.60;;
1004;SDS011;491;53.480;10.174;2022-12-05T17:11:03;6.77;;;4.27;;
1004;SDS011;491;53.480;10.174;2022-12-05T17:13:31;7.50;;;4.30;;
1004;SDS011;491;53.480;10.174;2022-12-05T17:15:57;8.10;;;4.80;;
1004;SDS011;491;53.480;10.174;2022-12-05T17:18:23;4.57;;;2.80;;
1004;SDS011;491;53.480;10.174;2022-12-05T17:20:49;4.40;;;2.87;;
1004;SDS011;491;53.480;10.174;2022-12-05T17:23:17;7.40;;;3.80;;
1004;SDS011;491;53.480;10.174;2022-12-05T17:25:43;8.87;;;3.63;;
1004;SDS011;491;53.480;10.174;2022-12-05T17:28:13;7.37;;;4.07;;
1004;SDS011;491;53.480;10.174;2022-12-05T17:30:38;8.87;;;4.23;;
1004;SDS011;491;53.480;10.174;2022-12-05T17:33:04;12.00;;;6.10;;